Time;durP1;ratioP1;P1;durP2;ratioP2;P2;SDS_P1;SDS_P2;PMS_P1;PMS_P2;Temp;Humidity;BMP_temperature;BMP_pressure;BME280_temperature;BME280_humidity;BME280_pressure;Samples;Min_cycle;Max_cycle;Signal;HPM_P1;HPM_P2
2022/12/27 00:04:38;;;;;;;4.28;1.55;;;;;;;6.14;66.40;100952.81;10305357;28;20052;-65
2022/12/27 00:09:40;;;;;;;5.13;1.05;;;;;;;6.15;67.49;100962.47;10290967;28;20406;-65
2022/12/27 00:14:41;;;;;;;1.92;0.95;;;;;;;6.18;69.71;100963.19;10302111;28;20051;-66
2022/12/27 00:19:42;;;;;;;4.05;1.30;;;;;;;6.23;69.73;100962.97;10302500;28;20375;-65
2022/12/27 00:24:44;;;;;;;2.63;1.38;;;;;;;6.17;68.12;100969.41;10308159;28;20186;-64
2022/12/27 00:29:45;;;;;;;3.80;1.50;;;;;;;6.21;67.20;100985.13;10309067;28;20124;-66
2022/12/27 00:34:46;;;;;;;4.20;1.65;;;;;;;6.15;67.97;100980.97;10308060;28;20534;-65
2022/12/27 00:39:48;;;;;;;2.50;1.70;;;;;;;5.97;67.75;100972.19;10316179;28;20647;-65
2022/12/27 00:44:49;;;;;;;3.85;1.70;;;;;;;5.85;69.10;100973.63;10295205;28;20262;-65
2022/12/27 00:49:51;;;;;;;3.67;1.75;;;;;;;5.83;69.02;100975.50;10301131;28;20058;-64
2022/12/27 00:54:52;;;;;;;2.60;1.45;;;;;;;5.87;68.86;100995.56;10309546;28;20062;-66
2022/12/27 00:59:54;;;;;;;3.50;1.95;;;;;;;5.86;69.56;100991.19;10304183;28;20050;-65
2022/12/27 01:04:56;;;;;;;4.32;1.80;;;;;;;5.79;71.51;100992.41;10309316;28;20136;-65
2022/12/27 01:09:57;;;;;;;3.65;1.75;;;;;;;5.78;71.24;100998.63;10312427;28;20042;-66
2022/12/27 01:14:59;;;;;;;4.53;1.90;;;;;;;5.86;70.55;101011.47;10312184;28;20046;-65
2022/12/27 01:20:01;;;;;;;2.83;2.03;;;;;;;5.88;70.99;101013.09;10321138;28;20058;-67
2022/12/27 01:25:02;;;;;;;3.15;1.40;;;;;;;5.79;71.45;101009.13;10331299;28;20085;-64
2022/12/27 01:30:05;;;;;;;3.78;2.55;;;;;;;5.64;70.13;101018.66;10310154;28;20130;-64
2022/12/27 01:35:07;;;;;;;3.08;1.40;;;;;;;5.56;71.07;101022.59;10308454;28;20054;-66
2022/12/27 01:40:09;;;;;;;2.55;1.20;;;;;;;5.47;71.94;101037.06;10312151;28;20221;-65
2022/12/27 01:45:26;;;;;;;3.97;1.13;;;;;;;5.62;72.56;101036.34;10310968;28;21531;-66
2022/12/27 01:50:34;;;;;;;3.35;1.10;;;;;;;5.43;72.47;101040.78;10313820;28;20068;-67
2022/12/27 01:55:47;;;;;;;1.90;1.00;;;;;;;5.33;72.15;101019.25;10310237;28;20052;-66
2022/12/27 02:00:49;;;;;;;2.95;1.30;;;;;;;5.41;72.22;101021.53;10294196;28;21512;-65
2022/12/27 02:05:51;;;;;;;4.55;1.40;;;;;;;5.51;71.65;101038.66;10307449;28;20145;-66
2022/12/27 02:10:54;;;;;;;2.30;1.02;;;;;;;5.16;72.25;101033.19;10295060;28;20429;-67
2022/12/27 02:15:55;;;;;;;4.80;1.52;;;;;;;5.13;73.25;101051.81;10309967;28;20135;-67
2022/12/27 02:21:17;;;;;;;3.70;1.45;;;;;;;5.13;72.14;101043.88;10292045;28;25447;-65
2022/12/27 02:26:54;;;;;;;2.90;0.95;;;;;;;5.19;73.44;101059.44;10306269;28;20060;-66
2022/12/27 02:32:05;;;;;;;3.83;1.05;;;;;;;5.08;73.92;101052.00;10252664;28;20046;-65
2022/12/27 02:37:10;;;;;;;5.82;1.00;;;;;;;5.02;73.06;101056.72;10305488;28;20613;-66
2022/12/27 02:53:08;;;;;;;3.10;1.10;;;;;;;5.02;73.65;101093.66;10300131;28;21306;-66
2022/12/27 02:58:29;;;;;;;3.38;0.82;;;;;;;5.07;74.79;101075.84;10304776;28;20057;-67
2022/12/27 03:04:04;;;;;;;3.67;1.35;;;;;;;5.19;73.64;101104.31;10288633;28;20046;-64
2022/12/27 03:25:36;;;;;;;4.20;0.95;;;;;;;4.99;73.61;101049.78;10304745;28;20046;-66
2022/12/27 03:47:34;;;;;;;4.80;1.13;;;;;;;5.00;73.96;101088.47;10318395;28;20062;-66
2022/12/27 03:52:47;;;;;;;2.17;0.40;;;;;;;4.82;74.26;101092.75;10311055;28;20057;-66
2022/12/27 03:57:49;;;;;;;4.63;1.20;;;;;;;4.66;74.65;101091.69;10307717;28;20052;-66
2022/12/27 04:02:51;;;;;;;2.92;0.47;;;;;;;4.57;75.33;101092.94;10301174;28;20155;-65
2022/12/27 04:34:43;;;;;;;1.58;1.20;;;;;;;4.19;77.86;101085.69;10312037;28;20046;-66
2022/12/27 04:54:55;;;;;;;2.90;0.80;;;;;;;4.16;78.17;101093.72;10313605;28;20058;-65
2022/12/27 04:55:51;;;;;;;3.90;0.80;;;;;;;3.82;80.38;101104.72;10313942;28;20054;-67
2022/12/27 05:06:15;;;;;;;3.40;0.80;;;;;;;3.50;81.40;101083.13;10312409;28;20127;-65
2022/12/27 05:16:39;;;;;;;2.70;1.35;;;;;;;3.70;82.67;101127.13;10312340;28;20452;-66
2022/12/27 05:25:33;;;;;;;2.15;1.30;;;;;;;3.66;83.08;101120.25;10310709;28;20464;-66
2022/12/27 05:27:04;;;;;;;3.60;1.10;;;;;;;3.71;83.70;101128.84;10309525;28;20057;-66
2022/12/27 05:32:06;;;;;;;4.70;2.45;;;;;;;3.74;83.73;101139.28;10309345;28;20065;-67
2022/12/27 05:37:13;;;;;;;3.53;1.00;;;;;;;3.65;83.44;101124.66;10308696;28;20050;-66
2022/12/27 05:42:15;;;;;;;3.65;1.33;;;;;;;3.71;83.85;101134.13;10311391;28;20129;-66
2022/12/27 05:47:16;;;;;;;7.50;1.40;;;;;;;3.64;84.45;101149.28;10313200;28;20081;-68
2022/12/27 05:52:18;;;;;;;2.33;1.20;;;;;;;3.58;85.35;101156.56;10310759;28;20062;-65
2022/12/27 05:57:19;;;;;;;2.17;0.93;;;;;;;3.61;85.36;101166.97;10313677;28;20066;-68
2022/12/27 06:02:21;;;;;;;5.88;1.55;;;;;;;3.52;85.46;101155.84;10309807;28;20680;-66
2022/12/27 06:07:22;;;;;;;5.07;1.33;;;;;;;3.58;86.01;101165.31;10311867;28;20081;-65
2022/12/27 06:12:24;;;;;;;3.47;1.27;;;;;;;3.63;86.08;101163.34;10309956;28;20054;-66
2022/12/27 06:17:25;;;;;;;2.40;1.30;;;;;;;3.71;86.13;101181.53;10305130;28;20556;-65
2022/12/27 06:22:26;;;;;;;3.75;1.23;;;;;;;3.72;85.77;101188.47;10304928;28;20050;-66
2022/12/27 06:27:28;;;;;;;4.75;2.20;;;;;;;3.70;86.23;101192.97;10310540;28;20077;-67
2022/12/27 06:32:30;;;;;;;5.18;2.08;;;;;;;3.63;86.89;101199.34;10293996;28;20057;-66
2022/12/27 06:37:32;;;;;;;8.73;2.38;;;;;;;3.59;86.99;101198.63;10303066;28;20053;-65
2022/12/27 06:42:33;;;;;;;5.13;2.10;;;;;;;3.61;87.30;101201.19;10303951;28;21749;-65
2022/12/27 06:47:41;;;;;;;6.05;1.80;;;;;;;3.64;87.25;101196.66;10458698;27;21469;-53
2022/12/27 06:52:43;;;;;;;4.18;1.90;;;;;;;3.63;87.40;101194.94;10417311;28;20743;-52
2022/12/27 06:57:44;;;;;;;2.95;2.17;;;;;;;3.71;86.99;101198.16;10428020;28;20048;-52
2022/12/27 07:02:46;;;;;;;4.40;1.80;;;;;;;3.74;87.29;101215.63;10423373;28;20059;-52
2022/12/27 07:07:48;;;;;;;6.97;2.25;;;;;;;3.75;87.24;101219.97;10418113;28;20096;-52
2022/12/27 07:12:50;;;;;;;4.13;2.08;;;;;;;3.69;87.34;101226.34;10421509;28;20289;-52
2022/12/27 07:17:51;;;;;;;7.88;2.00;;;;;;;3.66;87.92;101230.84;10412016;28;21241;-51
2022/12/27 07:22:53;;;;;;;9.23;2.97;;;;;;;3.75;87.70;101229.66;10426740;28;20078;-51
2022/12/27 07:27:54;;;;;;;4.10;2.10;;;;;;;3.74;87.24;101234.06;10412631;28;20124;-50
2022/12/27 07:32:56;;;;;;;4.85;2.38;;;;;;;3.72;87.93;101236.75;10429639;28;20444;-51
2022/12/27 07:37:57;;;;;;;6.00;2.33;;;;;;;3.69;87.87;101239.50;10419313;28;20151;-51
2022/12/27 07:42:59;;;;;;;4.57;2.28;;;;;;;3.74;87.69;101244.59;10416450;28;20183;-52
2022/12/27 07:48:00;;;;;;;4.60;2.67;;;;;;;3.68;88.48;101243.06;10416876;28;20048;-49
2022/12/27 07:53:02;;;;;;;7.90;2.08;;;;;;;3.69;87.79;101246.53;10420243;28;20409;-50
2022/12/27 07:58:03;;;;;;;6.35;2.10;;;;;;;4.05;89.84;101269.81;10406438;28;20060;-50
2022/12/27 08:03:05;;;;;;;4.50;2.03;;;;;;;4.07;87.24;101283.81;10399679;28;20147;-53
2022/12/27 08:08:06;;;;;;;6.78;2.22;;;;;;;4.07;86.54;101282.03;10397741;28;20052;-50
2022/12/27 08:13:08;;;;;;;7.53;2.50;;;;;;;4.10;86.68;101285.44;10397270;28;20083;-51
2022/12/27 08:18:09;;;;;;;6.75;2.20;;;;;;;4.12;86.45;101275.72;10399497;28;20144;-52
2022/12/27 08:23:11;;;;;;;5.15;2.50;;;;;;;4.23;86.33;101268.25;10382939;28;20571;-50
2022/12/27 08:28:15;;;;;;;4.88;2.20;;;;;;;4.22;85.92;101277.13;10393544;28;20048;-51
2022/12/27 08:33:16;;;;;;;5.15;2.40;;;;;;;4.26;86.35;101283.97;10393708;28;20083;-51
2022/12/27 08:38:18;;;;;;;3.97;2.58;;;;;;;4.25;85.96;101298.94;10412575;28;20049;-51
2022/12/27 08:43:19;;;;;;;4.07;2.13;;;;;;;4.41;85.72;101298.34;10398857;28;20060;-51
2022/12/27 08:48:20;;;;;;;6.05;2.83;;;;;;;4.46;85.52;101306.94;10414545;28;20355;-51
2022/12/27 08:53:22;;;;;;;6.80;3.38;;;;;;;4.48;85.65;101304.25;10403636;28;20049;-51
2022/12/27 08:58:23;;;;;;;7.10;2.92;;;;;;;4.65;85.07;101300.97;10404397;28;20116;-51
2022/12/27 09:03:25;;;;;;;4.18;2.50;;;;;;;4.70;84.62;101306.91;10399419;28;20049;-51
2022/12/27 09:08:26;;;;;;;5.55;1.98;;;;;;;4.77;84.85;101308.38;10398298;28;20049;-51
2022/12/27 09:13:28;;;;;;;4.53;2.45;;;;;;;4.94;84.43;101313.88;10398629;28;20726;-51
2022/12/27 09:18:29;;;;;;;5.60;2.80;;;;;;;4.82;82.93;101279.19;10407492;28;20045;-51
2022/12/27 09:23:30;;;;;;;5.72;2.70;;;;;;;5.03;83.18;101319.69;10398153;28;20056;-51
2022/12/27 09:28:32;;;;;;;4.05;2.17;;;;;;;5.08;82.70;101320.38;10407629;28;20053;-52
2022/12/27 09:33:34;;;;;;;3.63;1.95;;;;;;;5.09;82.36;101327.38;10387210;28;20056;-53
2022/12/27 09:38:36;;;;;;;3.13;1.98;;;;;;;5.13;82.70;101318.38;10404633;28;20574;-55
2022/12/27 09:43:52;;;;;;;7.18;2.75;;;;;;;5.12;82.56;101322.81;10408184;28;20053;-53
2022/12/27 09:48:55;;;;;;;7.20;2.15;;;;;;;5.15;81.77;101327.13;10398065;28;20123;-52
2022/12/27 09:54:14;;;;;;;6.63;3.03;;;;;;;5.17;81.78;101325.28;10396821;28;20060;-52
2022/12/27 09:59:27;;;;;;;5.28;2.22;;;;;;;5.28;81.92;101325.69;10399514;28;20561;-52
2022/12/27 10:04:35;;;;;;;3.78;2.70;;;;;;;5.45;80.42;101321.47;10393165;28;20148;-51
2022/12/27 10:10:12;;;;;;;4.45;2.40;;;;;;;5.63;80.23;101315.44;10390067;28;20701;-52
2022/12/27 10:15:38;;;;;;;7.20;2.92;;;;;;;5.89;78.84;101324.00;10388377;28;20181;-52
2022/12/27 10:20:52;;;;;;;5.72;2.55;;;;;;;5.89;78.08;101326.66;10398589;28;20037;-54
2022/12/27 10:26:01;;;;;;;6.53;2.42;;;;;;;6.12;77.66;101319.50;10397380;28;20176;-55
2022/12/27 10:31:03;;;;;;;7.00;2.63;;;;;;;6.45;76.43;101321.56;10395694;28;20666;-51
2022/12/27 10:36:14;;;;;;;5.88;2.72;;;;;;;6.50;75.84;101322.19;10397113;28;20057;-52
2022/12/27 10:41:18;;;;;;;11.07;8.20;;;;;;;6.74;74.67;101328.16;10389885;28;20052;-52
2022/12/27 10:46:24;;;;;;;3.97;2.67;;;;;;;7.17;72.87;101330.50;10399737;28;20135;-50
2022/12/27 10:51:38;;;;;;;4.70;2.67;;;;;;;7.63;70.53;101333.50;10398985;28;20053;-51
2022/12/27 10:56:43;;;;;;;6.55;3.28;;;;;;;7.43;70.92;101330.06;10395971;28;20051;-50
2022/12/27 11:01:46;;;;;;;12.55;8.73;;;;;;;7.20;71.77;101319.75;10397922;28;20067;-50
2022/12/27 11:06:50;;;;;;;68.03;57.63;;;;;;;7.47;71.41;101327.25;10394905;28;20056;-50
2022/12/27 11:12:15;;;;;;;5.37;3.03;;;;;;;7.36;71.28;101326.00;10395563;28;20183;-50
2022/12/27 11:17:17;;;;;;;9.00;6.68;;;;;;;9.22;64.62;101321.41;10395312;28;20045;-50
2022/12/27 11:22:19;;;;;;;8.23;2.80;;;;;;;10.20;60.25;101330.66;10398204;28;20048;-51
2022/12/27 11:27:24;;;;;;;6.45;2.90;;;;;;;9.49;62.70;101309.19;10398008;28;20068;-51
2022/12/27 11:32:26;;;;;;;7.97;3.40;;;;;;;7.88;68.23;101318.97;10399347;28;20052;-51
2022/12/27 11:37:27;;;;;;;7.30;3.15;;;;;;;10.59;60.38;101306.03;10409074;28;20150;-51
2022/12/27 11:42:37;;;;;;;8.57;2.97;;;;;;;9.38;62.12;101307.19;10404352;28;20076;-51
2022/12/27 11:47:52;;;;;;;8.93;3.55;;;;;;;8.29;67.84;101313.28;10401487;28;20047;-51
2022/12/27 11:53:26;;;;;;;6.32;3.50;;;;;;;7.88;69.29;101311.91;10401587;28;20543;-51
2022/12/27 11:58:48;;;;;;;6.95;3.45;;;;;;;9.48;64.71;101301.31;10407297;28;20131;-51
2022/12/27 12:04:27;;;;;;;4.43;3.33;;;;;;;14.41;49.68;101293.03;10404781;28;20056;-51
2022/12/27 12:09:55;;;;;;;9.82;5.65;;;;;;;17.07;42.91;101270.38;10399389;28;20415;-52
2022/12/27 12:15:32;;;;;;;4.07;2.50;;;;;;;18.11;40.78;101275.06;10407406;28;20052;-51
2022/12/27 12:20:49;;;;;;;6.68;3.03;;;;;;;19.47;36.74;101278.72;10414982;28;20082;-52
2022/12/27 12:26:09;;;;;;;8.88;4.70;;;;;;;20.22;35.23;101282.75;10403225;28;20049;-52
2022/12/27 12:31:36;;;;;;;4.78;3.00;;;;;;;19.58;35.39;101285.72;10406172;28;20060;-53
2022/12/27 12:36:47;;;;;;;6.35;3.53;;;;;;;15.70;43.49;101277.97;10404362;28;20041;-51
2022/12/27 12:41:59;;;;;;;4.15;2.95;;;;;;;17.19;39.88;101279.16;10399480;28;20098;-52
2022/12/27 12:47:21;;;;;;;10.10;7.03;;;;;;;14.76;44.76;101275.13;10403011;28;20059;-53
2022/12/27 12:52:41;;;;;;;4.53;2.38;;;;;;;12.35;50.18;101272.88;10407293;28;20148;-51
2022/12/27 12:58:15;;;;;;;7.32;3.22;;;;;;;15.52;44.42;101267.84;10399537;28;20098;-51
2022/12/27 13:03:18;;;;;;;;;;;;;;;17.58;38.09;101269.25;10404542;28;20495;-52
2022/12/27 13:08:39;;;;;;;6.10;2.88;;;;;;;18.73;36.88;101267.19;10402875;28;19931;-53
2022/12/27 13:13:54;;;;;;;3.53;1.65;;;;;;;19.24;36.42;101264.84;10406319;28;20053;-51
2022/12/27 13:19:21;;;;;;;5.65;2.65;;;;;;;19.48;35.92;101274.16;10404601;28;20106;-50
2022/12/27 13:25:04;;;;;;;4.22;2.10;;;;;;;17.80;37.73;101261.81;10400534;28;20044;-49
2022/12/27 13:30:21;;;;;;;4.90;1.85;;;;;;;18.08;37.63;101248.44;10402296;28;20050;-52
2022/12/27 13:35:41;;;;;;;3.28;1.88;;;;;;;17.61;38.84;101242.03;10407050;28;20051;-51
2022/12/27 13:41:19;;;;;;;4.43;2.45;;;;;;;16.00;40.91;101238.72;10403020;28;20139;-50
2022/12/27 13:47:12;;;;;;;5.72;2.50;;;;;;;14.66;44.41;101254.41;10400311;28;20350;-50
2022/12/27 13:52:34;;;;;;;11.23;7.95;;;;;;;12.48;49.64;101230.13;10408530;28;20048;-51
2022/12/27 13:57:45;;;;;;;5.75;2.50;;;;;;;10.78;54.73;101235.63;10393328;28;20381;-50
2022/12/27 14:03:16;;;;;;;5.70;2.97;;;;;;;10.04;58.37;101235.84;10403699;28;20997;-49
2022/12/27 14:08:36;;;;;;;16.38;8.95;;;;;;;9.28;60.76;101236.91;10403178;28;20053;-50
2022/12/27 14:13:42;;;;;;;4.03;2.78;;;;;;;8.96;62.82;101238.78;10400891;28;20136;-50
2022/12/27 14:19:09;;;;;;;5.15;3.28;;;;;;;8.68;63.50;101243.06;10400299;28;20092;-49
2022/12/27 14:24:32;;;;;;;4.95;3.42;;;;;;;8.59;64.79;101243.56;10403015;28;20037;-49
2022/12/27 14:29:52;;;;;;;4.22;2.83;;;;;;;8.38;65.35;101241.16;10406068;28;20202;-49
2022/12/27 14:35:12;;;;;;;4.32;2.63;;;;;;;8.07;66.95;101234.84;10398374;28;20138;-50
2022/12/27 14:40:28;;;;;;;6.22;3.03;;;;;;;7.97;67.65;101229.22;10399981;28;20060;-51
2022/12/27 14:46:13;;;;;;;7.18;2.92;;;;;;;7.76;68.66;101230.34;10398782;28;20053;-51
2022/12/27 14:51:40;;;;;;;5.72;3.05;;;;;;;7.65;69.39;101230.91;10396436;28;20079;-50
2022/12/27 14:57:10;;;;;;;8.10;3.28;;;;;;;7.64;70.01;101229.22;10398735;28;20151;-51
2022/12/27 15:02:46;;;;;;;5.63;3.53;;;;;;;7.34;70.70;101237.81;10392646;28;20626;-51
2022/12/27 15:08:20;;;;;;;6.82;3.70;;;;;;;7.06;72.32;101241.84;10397380;28;20053;-50
2022/12/27 15:13:40;;;;;;;6.47;3.40;;;;;;;6.93;72.93;101242.56;10395981;28;20057;-50
2022/12/27 15:18:47;;;;;;;10.20;4.63;;;;;;;6.71;73.64;101246.22;10404239;28;20049;-49
2022/12/27 15:23:58;;;;;;;6.40;3.70;;;;;;;6.70;74.51;101248.03;10400346;28;20114;-50
2022/12/27 15:29:22;;;;;;;5.25;3.78;;;;;;;6.79;74.41;101256.47;10403989;28;20704;-49
2022/12/27 15:34:34;;;;;;;4.28;3.22;;;;;;;6.80;74.51;101252.88;10399566;28;20056;-51
2022/12/27 15:39:36;;;;;;;8.13;2.88;;;;;;;6.85;74.45;101240.28;10405604;28;20468;-50
2022/12/27 15:45:04;;;;;;;5.15;2.92;;;;;;;6.78;74.69;101239.72;10402305;28;20063;-50
2022/12/27 15:50:24;;;;;;;6.80;2.55;;;;;;;6.76;74.59;101238.94;10397058;28;20041;-51
2022/12/27 15:55:29;;;;;;;6.28;2.83;;;;;;;6.65;75.34;101244.75;10395611;28;20045;-51
2022/12/27 16:00:31;;;;;;;3.92;2.50;;;;;;;6.59;75.55;101242.41;10404775;28;20406;-52
2022/12/27 16:05:47;;;;;;;6.23;3.10;;;;;;;6.39;75.99;101234.56;10404093;28;20086;-51
2022/12/27 16:10:49;;;;;;;7.30;2.90;;;;;;;6.28;76.22;101225.34;10396603;28;20873;-50
2022/12/27 16:15:52;;;;;;;7.25;3.30;;;;;;;6.12;76.52;101224.34;10382839;28;20088;-51
2022/12/27 16:20:56;;;;;;;5.70;3.35;;;;;;;6.04;76.76;101215.94;10401189;28;20115;-51
2022/12/27 16:26:09;;;;;;;7.00;3.55;;;;;;;5.96;77.04;101218.84;10411499;28;20041;-50
2022/12/27 16:31:11;;;;;;;7.70;3.50;;;;;;;5.85;77.44;101203.50;10401163;28;20052;-50
2022/12/27 16:36:25;;;;;;;8.43;3.50;;;;;;;5.82;78.05;101201.88;10391699;28;20131;-50
2022/12/27 16:41:26;;;;;;;5.25;3.92;;;;;;;5.70;78.16;101201.56;10397454;28;20810;-50
2022/12/27 16:46:46;;;;;;;5.35;3.55;;;;;;;5.73;78.84;101209.34;10395299;28;20463;-53
2022/12/27 16:52:16;;;;;;;5.53;3.03;;;;;;;5.65;78.94;101210.53;10399022;28;20044;-51
2022/12/27 16:57:23;;;;;;;7.20;3.50;;;;;;;5.66;78.62;101206.97;10389499;28;20704;-50
2022/12/27 17:02:37;;;;;;;5.78;3.13;;;;;;;5.63;78.98;101195.69;10418051;28;20153;-51
2022/12/27 17:07:49;;;;;;;8.18;3.70;;;;;;;5.61;78.93;101208.97;10401393;28;20123;-51
2022/12/27 17:12:59;;;;;;;4.72;2.90;;;;;;;5.58;78.51;101195.88;10395531;28;20103;-51
2022/12/27 17:18:21;;;;;;;6.18;3.47;;;;;;;5.61;78.52;101202.81;10400158;28;20049;-52
2022/12/27 17:23:22;;;;;;;6.25;3.45;;;;;;;5.59;78.45;101200.25;10387702;28;20136;-52
2022/12/27 17:28:31;;;;;;;6.10;3.80;;;;;;;5.56;78.29;101183.69;10393578;28;20131;-50
2022/12/27 17:33:52;;;;;;;11.48;4.47;;;;;;;5.65;78.11;101188.56;10392901;28;20056;-52
2022/12/27 17:39:05;;;;;;;6.97;3.72;;;;;;;5.66;78.02;101177.06;10397187;28;20044;-51
2022/12/27 17:44:36;;;;;;;6.68;3.90;;;;;;;5.67;77.75;101149.72;10395375;28;20040;-50
2022/12/27 17:49:38;;;;;;;5.78;3.03;;;;;;;5.82;76.35;101156.09;10399486;28;20529;-51
2022/12/27 18:00:02;;;;;;;8.52;3.63;;;;;;;5.99;75.78;101160.59;10397197;28;20053;-50
2022/12/27 18:05:11;;;;;;;4.88;2.97;;;;;;;6.01;75.66;101154.31;10393886;28;20049;-53
2022/12/27 18:10:21;;;;;;;8.00;4.13;;;;;;;6.05;75.66;101159.47;10393940;28;20456;-51
2022/12/27 18:15:25;;;;;;;9.25;2.80;;;;;;;6.08;75.93;101151.38;10396353;28;20534;-51
2022/12/27 18:20:27;;;;;;;5.60;2.97;;;;;;;6.05;77.23;101146.25;10401886;28;20171;-51
2022/12/27 18:25:30;;;;;;;6.78;3.08;;;;;;;5.98;78.21;101154.47;10400229;28;20136;-51
2022/12/27 18:30:41;;;;;;;7.40;3.95;;;;;;;5.91;78.79;101153.00;10400203;28;20589;-51
2022/12/27 18:35:48;;;;;;;6.40;3.70;;;;;;;5.85;79.48;101145.38;10391734;28;20041;-51
2022/12/27 18:40:59;;;;;;;5.03;3.47;;;;;;;5.83;79.55;101137.50;10391153;28;20041;-66
2022/12/27 18:46:02;;;;;;;8.27;3.00;;;;;;;5.83;79.69;101139.31;10389856;28;20463;-52
2022/12/27 18:51:04;;;;;;;8.95;3.50;;;;;;;5.64;80.55;101128.72;10390877;28;20057;-51
2022/12/27 18:56:22;;;;;;;5.68;3.55;;;;;;;5.68;80.63;101132.09;10374024;28;20132;-54
2022/12/27 19:01:31;;;;;;;7.82;4.53;;;;;;;5.68;80.05;101126.81;10390590;28;20044;-51
2022/12/27 19:06:33;;;;;;;20.70;6.15;;;;;;;5.64;80.45;101108.47;10388677;28;20049;-51
2022/12/27 19:11:35;;;;;;;9.55;5.32;;;;;;;5.51;80.94;101103.78;10392227;28;20045;-51
2022/12/27 19:16:37;;;;;;;6.85;4.30;;;;;;;5.56;80.53;101091.25;10389974;28;20056;-51
2022/12/27 19:21:38;;;;;;;6.32;3.90;;;;;;;5.70;79.90;101101.19;10397555;28;20553;-51
2022/12/27 19:26:40;;;;;;;4.60;3.75;;;;;;;5.78;79.61;101099.00;10405301;28;20049;-51
2022/12/27 19:31:43;;;;;;;8.25;4.43;;;;;;;5.81;79.31;101096.22;10396651;28;20095;-51
2022/12/27 19:36:47;;;;;;;8.45;4.82;;;;;;;5.74;79.68;101089.53;10393847;28;20694;-51
2022/12/27 19:41:49;;;;;;;6.47;3.90;;;;;;;5.73;80.66;101087.81;10395470;28;20551;-51
2022/12/27 19:46:51;;;;;;;6.70;4.18;;;;;;;5.76;80.47;101077.94;10391400;28;20111;-55
2022/12/27 19:51:57;;;;;;;5.75;3.28;;;;;;;5.84;80.33;101061.75;10384990;28;20755;-51
2022/12/27 19:56:58;;;;;;;8.40;4.45;;;;;;;5.83;80.69;101070.59;10401601;28;20057;-51
2022/12/27 20:02:00;;;;;;;6.43;2.90;;;;;;;5.84;80.73;101059.13;10399004;28;20079;-50
2022/12/27 20:07:02;;;;;;;8.05;2.97;;;;;;;5.70;80.95;101037.78;10405745;28;20722;-51
2022/12/27 20:12:03;;;;;;;4.10;2.90;;;;;;;5.80;81.38;101054.91;10412677;28;20048;-56
2022/12/27 20:17:05;;;;;;;6.85;4.22;;;;;;;5.79;81.91;101053.19;10401175;28;20061;-50
2022/12/27 20:22:06;;;;;;;6.28;3.50;;;;;;;5.69;82.69;101050.13;10398101;28;20076;-50
2022/12/27 20:27:08;;;;;;;6.75;4.47;;;;;;;5.70;82.75;101043.06;10396750;28;20055;-50
2022/12/27 20:32:09;;;;;;;8.07;4.30;;;;;;;5.58;83.90;101036.56;10404581;28;20048;-51
2022/12/27 20:37:11;;;;;;;8.18;4.72;;;;;;;5.54;83.89;101020.03;10407662;28;20138;-52
2022/12/27 20:42:12;;;;;;;10.05;4.80;;;;;;;5.54;84.09;101027.94;10405393;28;20052;-52
2022/12/27 20:47:14;;;;;;;8.18;4.72;;;;;;;5.45;84.43;101029.22;10400626;28;22278;-52
2022/12/27 20:52:15;;;;;;;6.95;4.55;;;;;;;5.36;85.40;101024.38;10409671;28;20362;-51
2022/12/27 20:57:17;;;;;;;8.70;4.80;;;;;;;5.43;84.98;101025.78;10403770;28;20062;-52
2022/12/27 21:02:18;;;;;;;7.95;4.60;;;;;;;5.60;84.55;101026.78;10397163;28;20136;-50
2022/12/27 21:07:20;;;;;;;10.70;5.85;;;;;;;5.69;84.03;101022.84;10400104;28;20048;-50
2022/12/27 21:12:21;;;;;;;6.28;4.82;;;;;;;5.73;83.19;101032.34;10400130;28;20053;-51
2022/12/27 21:17:23;;;;;;;7.15;4.50;;;;;;;5.77;83.19;101016.28;10399529;28;20634;-50
2022/12/27 21:22:24;;;;;;;10.57;5.65;;;;;;;5.75;82.52;101027.84;10403740;28;20078;-51
2022/12/27 21:27:26;;;;;;;10.75;5.97;;;;;;;5.74;82.93;101007.66;10405865;28;20102;-50
2022/12/27 21:32:28;;;;;;;9.30;5.55;;;;;;;5.77;82.58;101012.78;10401922;28;20311;-50
2022/12/27 21:37:29;;;;;;;9.15;5.32;;;;;;;5.67;83.11;101007.06;10401659;28;20056;-51
2022/12/27 21:42:31;;;;;;;8.77;5.32;;;;;;;5.47;83.05;100978.97;10403990;28;20721;-50
2022/12/27 21:47:32;;;;;;;9.27;5.82;;;;;;;5.49;83.54;100998.22;10393898;28;20064;-51
2022/12/27 21:52:34;;;;;;;8.23;5.40;;;;;;;5.46;83.08;100987.81;10400222;28;20260;-50
2022/12/27 21:57:35;;;;;;;7.35;5.20;;;;;;;5.32;84.04;100984.03;10397531;28;20083;-50
2022/12/27 22:02:36;;;;;;;8.13;5.85;;;;;;;5.36;84.01;100968.94;10400133;28;20079;-50
2022/12/27 22:07:40;;;;;;;7.45;4.68;;;;;;;5.23;83.50;100954.59;10398268;28;20053;-51
2022/12/27 22:12:42;;;;;;;10.40;5.25;;;;;;;5.42;83.01;100965.13;10403409;28;20049;-50
2022/12/27 22:17:43;;;;;;;6.85;4.50;;;;;;;5.40;82.49;100953.78;10396481;28;20045;-50
2022/12/27 22:22:45;;;;;;;7.72;4.68;;;;;;;5.31;82.70;100953.31;10400868;28;20044;-52
2022/12/27 22:27:46;;;;;;;9.05;4.72;;;;;;;5.13;82.50;100909.28;10408011;28;20059;-50
2022/12/27 22:32:48;;;;;;;9.70;4.47;;;;;;;5.39;82.45;100934.47;10405449;28;20065;-50
2022/12/27 22:37:49;;;;;;;9.35;4.35;;;;;;;5.49;82.09;100940.13;10396450;28;20222;-51
2022/12/27 22:42:50;;;;;;;7.25;4.28;;;;;;;5.45;81.91;100939.44;10402929;28;20116;-50
2022/12/27 22:47:52;;;;;;;8.63;4.70;;;;;;;5.48;80.77;100936.66;10397293;28;20049;-50
2022/12/27 22:52:53;;;;;;;5.85;3.92;;;;;;;5.47;81.00;100934.09;10406725;28;20180;-53
2022/12/27 22:57:55;;;;;;;6.93;4.30;;;;;;;5.56;80.75;100946.00;10400650;28;20171;-51
2022/12/27 23:02:56;;;;;;;4.97;4.18;;;;;;;5.54;80.74;100930.22;10399707;28;20056;-50
2022/12/27 23:07:59;;;;;;;6.05;4.30;;;;;;;5.64;80.22;100928.84;10408453;28;20060;-50
2022/12/27 23:13:07;;;;;;;7.45;4.25;;;;;;;5.59;80.19;100922.06;10400492;28;20044;-51
2022/12/27 23:18:08;;;;;;;8.88;4.07;;;;;;;5.60;80.19;100922.00;10402487;28;20469;-51
2022/12/27 23:23:10;;;;;;;6.05;3.05;;;;;;;5.69;80.07;100925.09;10396820;28;20131;-51
2022/12/27 23:28:11;;;;;;;6.95;3.90;;;;;;;5.52;79.70;100900.38;10398421;28;20135;-51
2022/12/27 23:33:13;;;;;;;5.95;3.40;;;;;;;5.57;79.50;100903.66;10407169;28;20604;-51
2022/12/27 23:38:14;;;;;;;7.60;4.07;;;;;;;5.52;79.76;100900.38;10407586;28;20052;-51
2022/12/27 23:43:15;;;;;;;6.13;3.45;;;;;;;5.52;79.68;100896.88;10418659;28;20066;-51
2022/12/27 23:48:37;;;;;;;5.18;3.78;;;;;;;5.49;79.72;100884.69;10408074;28;20118;-50
2022/12/27 23:53:39;;;;;;;7.78;4.43;;;;;;;5.55;79.67;100873.81;10413054;28;20049;-51
2022/12/27 23:58:41;;;;;;;6.95;4.45;;;;;;;5.43;80.28;100863.88;10409099;28;20495;-51
